Arkona, Germany

9:10 AM CEST on September 28, 2016 (GMT +0200)
Ostsee Wetterstation Klaarkiming | | Change Station

Elev 0 ft 54.62 °N, 13.37 °E | Updated 8 minutes ago

Overcast
Overcast
61.2 °F
Feels Like 61.2 °F
N
9.0
Wind Variable Wind from South
Gusts 21.0 mph

Today
High -- | Low -- °F
--% Chance of Precip.
Yesterday
High -- | Low -- °F
Precip. -- in
Pressure 29.95 in
Visibility 3.7 miles
Clouds Overcast 2500 ft
Dew Point 53 °F
Humidity 75%
Rainfall 0.00 in
Snow Depth Not available.
7:03 AM 6:49 PM
Waning Crescent, 7% visible
METAR EKRN 280650Z AUTO 24023G35KT 6000NDV -SHRA OVC025/// 16/13 Q1014
Pressure 29.95 in
Visibility 3.7 miles
Clouds Overcast 2500 ft
Dew Point 53 °F
Humidity 75%
Rainfall 0.00 in
Snow Depth Not available.
7:03 AM 6:49 PM
Waning Crescent, 7% visible
METAR EKRN 280650Z AUTO 24023G35KT 6000NDV -SHRA OVC025/// 16/13 Q1014

10-Day Weather Forecast

×

Almanac

Astronomy

Sep. 28, 2016 Rise Set
Actual Time
Civil Twilight
Nautical Twilight
Astronomical Twilight
Moon
Length of Visible Light
Length of Day
Tomorrow will be .
, % of the Moon is Illuminated

Today's Extremes

Country Highs Country Lows

Community

WunderPhotos

Upload Photos

1,942,216 photos uploaded!

WunderBlog® & News

Nearby

Air Quality

  Air Quality AQ Index Pollutant
Not available.

Snow Depth

Station Depth Elevation

Earthquake Activity

City Distance Mag. Time & Date
Minimum magnitude displayed is 2.5.

Coastal Water Temperatures

Place Temperature

Stations

Nearby Weather Stations

Station Location Temp. Windchill Dew Point Humidity Wind Precip. Elev Updated Type